Time;durP1;ratioP1;P1;durP2;ratioP2;P2;SDS_P1;SDS_P2;PMS_P1;PMS_P2;Temp;Humidity;BMP_temperature;BMP_pressure;BME280_temperature;BME280_humidity;BME280_pressure;Samples;Min_cycle;Max_cycle;Signal;HPM_P1;HPM_P2
2022/03/20 00:00:09;;;;;;;0.70;0.70;;;;;;;8.52;32.01;103643.91;696750;28;22428;-65
2022/03/20 00:00:34;;;;;;;0.70;0.70;;;;;;;8.51;32.17;103641.31;697204;28;138737;-65
2022/03/20 00:00:55;;;;;;;0.70;0.70;;;;;;;8.50;32.11;103639.59;701020;28;45453;-66
2022/03/20 00:01:16;;;;;;;0.60;0.60;;;;;;;8.50;32.02;103639.59;700735;28;44380;-66
2022/03/20 00:01:39;;;;;;;0.60;0.60;;;;;;;8.50;32.26;103643.16;699826;28;23496;-65
2022/03/20 00:02:00;;;;;;;0.70;0.70;;;;;;;8.50;32.08;103645.84;700503;28;46331;-66
2022/03/20 00:02:21;;;;;;;0.75;0.75;;;;;;;8.49;32.06;103644.09;699531;28;23468;-65
2022/03/20 00:02:42;;;;;;;0.70;0.70;;;;;;;8.49;32.08;103641.41;696974;28;21554;-66
2022/03/20 00:03:05;;;;;;;0.60;0.60;;;;;;;8.51;31.85;103641.31;696168;28;22440;-65
2022/03/20 00:03:27;;;;;;;0.52;0.52;;;;;;;8.52;32.09;103643.91;694844;28;69122;-65
2022/03/20 00:03:48;;;;;;;0.60;0.60;;;;;;;8.52;32.22;103634.97;695395;28;45283;-65
2022/03/20 00:04:09;;;;;;;0.80;0.80;;;;;;;8.51;31.89;103649.38;696532;28;23437;-66
2022/03/20 00:04:30;;;;;;;0.80;0.80;;;;;;;8.50;32.20;103647.69;696489;28;22409;-66
2022/03/20 00:04:54;;;;;;;0.80;0.80;;;;;;;8.50;32.13;103636.91;695127;28;45333;-65
2022/03/20 00:05:17;;;;;;;0.60;0.60;;;;;;;8.49;32.11;103644.09;692900;28;92310;-66
2022/03/20 00:05:39;;;;;;;0.43;0.43;;;;;;;8.47;32.16;103644.19;694771;28;69334;-66
2022/03/20 00:06:01;;;;;;;0.70;0.70;;;;;;;8.47;32.07;103644.19;695468;28;46413;-65
2022/03/20 00:06:22;;;;;;;0.73;0.73;;;;;;;8.46;32.26;103645.16;696257;28;18153;-65
2022/03/20 00:06:43;;;;;;;0.70;0.70;;;;;;;8.43;32.15;103634.56;696102;28;22396;-65
2022/03/20 00:07:06;;;;;;;0.70;0.70;;;;;;;8.44;32.09;103641.66;696431;28;23461;-66
2022/03/20 00:07:28;;;;;;;0.60;0.60;;;;;;;8.42;32.15;103640.88;693750;28;90789;-66
2022/03/20 00:07:50;;;;;;;0.70;0.70;;;;;;;8.44;32.07;103640.81;695536;28;46394;-66
2022/03/20 00:08:12;;;;;;;0.80;0.80;;;;;;;8.42;32.13;103635.50;695317;28;44196;-65
2022/03/20 00:08:33;;;;;;;0.73;0.73;;;;;;;8.37;31.93;103637.59;695741;28;46302;-65
2022/03/20 00:08:55;;;;;;;0.55;0.55;;;;;;;8.41;31.83;103647.22;695938;28;21662;-66
2022/03/20 00:09:17;;;;;;;0.60;0.60;;;;;;;8.40;31.95;103640.09;695414;28;46095;-65
2022/03/20 00:09:38;;;;;;;0.75;0.75;;;;;;;8.39;32.12;103640.19;695122;28;46403;-65
2022/03/20 00:10:02;;;;;;;0.80;0.80;;;;;;;8.36;32.13;103635.84;696559;28;22362;-66
2022/03/20 00:10:23;;;;;;;0.77;0.77;;;;;;;8.36;32.04;103643.06;694247;28;92558;-65
2022/03/20 00:10:46;;;;;;;0.65;0.65;;;;;;;8.37;32.12;103645.69;696461;28;23574;-66
2022/03/20 00:11:07;;;;;;;0.60;0.60;;;;;;;8.36;32.14;103643.94;694813;28;69384;-65
2022/03/20 00:11:28;;;;;;;0.80;0.80;;;;;;;8.37;31.98;103645.69;696293;28;23441;-65
2022/03/20 00:11:49;;;;;;;0.90;0.90;;;;;;;8.37;32.06;103647.47;694418;28;43458;-66
2022/03/20 00:12:11;;;;;;;0.70;0.70;;;;;;;8.36;32.38;103643.06;696464;28;21493;-65
2022/03/20 00:12:32;;;;;;;0.65;0.65;;;;;;;8.34;32.04;103637.78;695768;28;46402;-65
2022/03/20 00:12:54;;;;;;;0.60;0.60;;;;;;;8.35;32.17;103642.19;696845;28;22401;-66
2022/03/20 00:13:17;;;;;;;0.57;0.57;;;;;;;8.35;32.25;103635.94;696282;28;23408;-66
2022/03/20 00:13:39;;;;;;;0.80;0.80;;;;;;;8.35;32.13;103639.50;694379;28;90813;-66
2022/03/20 00:14:00;;;;;;;0.70;0.70;;;;;;;8.35;32.15;103644.88;695434;28;46383;-66
2022/03/20 00:14:21;;;;;;;0.65;0.65;;;;;;;8.36;31.85;103643.94;696223;28;21526;-65
2022/03/20 00:14:44;;;;;;;0.70;0.70;;;;;;;8.36;32.24;103640.38;696282;28;22397;-66
2022/03/20 00:15:06;;;;;;;0.60;0.60;;;;;;;8.36;32.22;103638.53;694844;28;68502;-66
2022/03/20 00:15:28;;;;;;;0.80;0.80;;;;;;;8.37;31.92;103637.59;695249;28;46340;-65
2022/03/20 00:15:51;;;;;;;0.80;0.80;;;;;;;8.36;31.97;103643.94;695654;28;45200;-66
2022/03/20 00:16:13;;;;;;;0.77;0.77;;;;;;;8.35;31.79;103639.50;695544;28;46682;-66
2022/03/20 00:16:34;;;;;;;0.70;0.70;;;;;;;8.36;31.64;103643.06;693976;28;69441;-66
2022/03/20 00:16:55;;;;;;;0.60;0.60;;;;;;;8.37;31.79;103644.78;695515;28;46463;-65
2022/03/20 00:17:16;;;;;;;0.70;0.70;;;;;;;8.38;32.02;103646.53;695925;28;22668;-65
2022/03/20 00:17:37;;;;;;;0.90;0.90;;;;;;;8.36;31.68;103640.38;695415;28;45648;-65
2022/03/20 00:17:59;;;;;;;0.70;0.70;;;;;;;8.37;32.06;103647.47;696778;28;22419;-65
2022/03/20 00:18:23;;;;;;;0.65;0.65;;;;;;;8.33;31.94;103641.41;696042;28;46391;-66
2022/03/20 00:18:44;;;;;;;0.70;0.70;;;;;;;8.33;31.96;103641.41;694209;28;93164;-66
2022/03/20 00:19:05;;;;;;;0.77;0.77;;;;;;;8.32;32.09;103639.66;696587;28;22960;-66
2022/03/20 00:19:27;;;;;;;0.88;0.88;;;;;;;8.33;31.87;103643.25;696772;28;22472;-66
2022/03/20 00:19:49;;;;;;;0.80;0.80;;;;;;;8.29;31.89;103632.66;695208;28;46254;-65
2022/03/20 00:20:11;;;;;;;0.70;0.70;;;;;;;8.31;31.68;103640.66;696080;28;21302;-66
2022/03/20 00:20:32;;;;;;;0.68;0.68;;;;;;;8.33;31.77;103640.56;695063;28;70438;-65
2022/03/20 00:20:55;;;;;;;0.60;0.60;;;;;;;8.29;31.87;103632.66;696844;28;21534;-66
2022/03/20 00:21:16;;;;;;;0.70;0.70;;;;;;;8.30;31.52;103641.59;694636;28;70316;-66
2022/03/20 00:21:38;;;;;;;0.80;0.80;;;;;;;8.32;31.21;103636.97;695401;28;22496;-65
2022/03/20 00:21:59;;;;;;;0.80;0.80;;;;;;;8.29;31.53;103638.06;696074;28;21526;-65
2022/03/20 00:22:21;;;;;;;0.70;0.70;;;;;;;8.32;31.38;103633.44;697017;28;4775;-65
2022/03/20 00:22:44;;;;;;;0.60;0.60;;;;;;;8.33;31.69;103641.41;696739;28;1032;-66
2022/03/20 00:23:08;;;;;;;0.70;0.70;;;;;;;8.32;31.67;103636.13;696362;28;23455;-65
2022/03/20 00:23:30;;;;;;;0.90;0.90;;;;;;;8.32;31.51;103636.97;693405;28;113595;-66
2022/03/20 00:23:51;;;;;;;0.80;0.80;;;;;;;8.33;31.49;103637.88;696450;28;22365;-65
2022/03/20 00:24:13;;;;;;;0.70;0.70;;;;;;;8.28;31.41;103624.69;695966;28;22335;-65
2022/03/20 00:24:34;;;;;;;0.60;0.60;;;;;;;8.32;31.73;103638.81;695236;28;45132;-66
2022/03/20 00:24:56;;;;;;;0.75;0.75;;;;;;;8.35;31.37;103638.63;695555;28;44408;-66
2022/03/20 00:25:19;;;;;;;0.90;0.90;;;;;;;8.35;31.46;103638.63;695780;28;44213;-66
2022/03/20 00:25:42;;;;;;;0.80;0.80;;;;;;;8.35;31.35;103644.03;694438;28;70342;-65
2022/03/20 00:26:03;;;;;;;0.70;0.70;;;;;;;8.37;31.39;103640.28;695136;28;69548;-65
2022/03/20 00:26:24;;;;;;;0.70;0.70;;;;;;;8.38;31.38;103641.16;696477;28;22356;-65
2022/03/20 00:26:45;;;;;;;0.67;0.67;;;;;;;8.38;31.50;103636.63;695346;28;44398;-65
2022/03/20 00:27:08;;;;;;;0.80;0.80;;;;;;;8.39;31.31;103640.19;696088;28;44207;-65
2022/03/20 00:27:29;;;;;;;0.80;0.80;;;;;;;8.40;31.34;103639.22;693372;28;46707;-66
2022/03/20 00:27:51;;;;;;;0.80;0.80;;;;;;;8.39;31.44;103635.66;691676;28;67339;-65
2022/03/20 00:28:17;;;;;;;0.75;0.75;;;;;;;8.38;31.18;103639.31;690889;28;22561;-65
2022/03/20 00:28:38;;;;;;;0.60;0.60;;;;;;;8.41;31.42;103643.66;688232;28;100979;-65
2022/03/20 00:28:59;;;;;;;0.80;0.80;;;;;;;8.40;31.28;103636.53;693814;28;21299;-64
2022/03/20 00:29:21;;;;;;;0.82;0.82;;;;;;;8.37;31.57;103636.72;695408;28;22406;-66
2022/03/20 00:29:43;;;;;;;0.70;0.70;;;;;;;8.38;31.15;103633.06;694895;28;44318;-65
2022/03/20 00:30:05;;;;;;;0.70;0.70;;;;;;;8.35;31.34;103639.50;696159;28;47406;-65
2022/03/20 00:30:26;;;;;;;0.70;0.70;;;;;;;8.32;31.03;103631.59;697526;28;44355;-65
2022/03/20 00:30:47;;;;;;;0.80;0.80;;;;;;;8.34;30.98;103635.09;698763;28;22648;-66
2022/03/20 00:31:09;;;;;;;0.90;0.90;;;;;;;8.36;31.04;103635.00;696422;28;22531;-65
2022/03/20 00:31:32;;;;;;;0.90;0.90;;;;;;;8.35;31.00;103633.25;694995;28;47953;-66
2022/03/20 00:31:53;;;;;;;0.90;0.90;;;;;;;8.37;31.08;103634.91;694519;28;69533;-65
2022/03/20 00:32:15;;;;;;;0.80;0.80;;;;;;;8.37;31.06;103636.72;695608;28;44367;-65
2022/03/20 00:32:37;;;;;;;0.75;0.75;;;;;;;8.32;31.00;103628.03;696507;28;22492;-65
2022/03/20 00:32:58;;;;;;;0.85;0.85;;;;;;;8.31;31.06;103632.56;695431;28;45279;-65
2022/03/20 00:33:20;;;;;;;0.93;0.93;;;;;;;8.31;31.02;103627.19;695376;28;46272;-66
2022/03/20 00:33:42;;;;;;;0.80;0.80;;;;;;;8.32;31.09;103633.44;696004;28;46432;-65
2022/03/20 00:34:03;;;;;;;0.77;0.77;;;;;;;8.30;31.10;103630.81;696558;28;22935;-65
2022/03/20 00:34:25;;;;;;;0.70;0.70;;;;;;;8.29;31.00;103626.38;696426;28;22402;-66
2022/03/20 00:34:46;;;;;;;0.80;0.80;;;;;;;8.27;31.27;103633.69;695480;28;46356;-65
2022/03/20 00:35:07;;;;;;;0.80;0.80;;;;;;;8.29;31.13;103627.28;696421;28;22347;-66
2022/03/20 00:35:28;;;;;;;0.70;0.70;;;;;;;8.29;31.33;103635.34;696251;28;23407;-66
2022/03/20 00:35:50;;;;;;;0.75;0.75;;;;;;;8.27;31.37;103634.56;696164;28;21613;-66
2022/03/20 00:36:11;;;;;;;0.80;0.80;;;;;;;8.29;31.37;103634.47;696075;28;45142;-65
2022/03/20 00:36:35;;;;;;;0.80;0.80;;;;;;;8.25;31.35;103622.16;695769;28;23497;-65
2022/03/20 00:36:56;;;;;;;0.90;0.90;;;;;;;8.23;31.52;103629.47;694336;28;93057;-65
2022/03/20 00:37:18;;;;;;;0.90;0.90;;;;;;;8.26;31.33;103622.06;696207;28;21177;-65
2022/03/20 00:37:39;;;;;;;0.77;0.77;;;;;;;8.33;31.22;103629.78;695805;28;43721;-65
2022/03/20 00:38:00;;;;;;;0.60;0.60;;;;;;;8.29;30.76;103639.84;696554;28;22831;-65
2022/03/20 00:38:23;;;;;;;0.80;0.80;;;;;;;8.28;30.86;103630.06;695108;28;46845;-66
2022/03/20 00:38:44;;;;;;;0.90;0.90;;;;;;;8.25;30.87;103631.09;695847;28;46389;-65
2022/03/20 00:39:05;;;;;;;0.90;0.90;;;;;;;8.24;31.19;103626.66;696399;28;23460;-65
2022/03/20 00:39:26;;;;;;;0.80;0.80;;;;;;;8.24;31.08;103626.66;696375;28;21537;-66
2022/03/20 00:39:47;;;;;;;0.80;0.80;;;;;;;8.24;31.24;103628.50;695954;28;22398;-66
2022/03/20 00:40:10;;;;;;;0.80;0.80;;;;;;;8.23;31.20;103630.34;696553;28;22560;-65
2022/03/20 00:40:32;;;;;;;1.00;1.00;;;;;;;8.22;31.14;103625.91;694869;28;46321;-65
2022/03/20 00:40:54;;;;;;;1.00;1.00;;;;;;;8.20;30.99;103626.97;694984;28;67493;-65
2022/03/20 00:41:15;;;;;;;0.70;0.70;;;;;;;8.21;30.76;103631.38;695833;28;46421;-65
2022/03/20 00:41:37;;;;;;;0.82;0.82;;;;;;;8.17;30.69;103624.44;695005;28;21332;-66
2022/03/20 00:41:58;;;;;;;0.80;0.80;;;;;;;8.14;30.83;103630.03;695421;28;46296;-66
2022/03/20 00:42:19;;;;;;;0.93;0.93;;;;;;;8.14;31.12;103632.72;696368;28;22474;-66
2022/03/20 00:42:40;;;;;;;0.90;0.90;;;;;;;8.11;31.12;103623.84;695872;28;24156;-65
2022/03/20 00:43:03;;;;;;;0.75;0.75;;;;;;;8.11;31.11;103628.34;696560;28;22408;-66
2022/03/20 00:43:24;;;;;;;0.80;0.80;;;;;;;8.10;31.06;103626.63;695024;28;69468;-66
2022/03/20 00:43:46;;;;;;;0.63;0.63;;;;;;;8.09;31.28;103623.06;696790;28;22343;-65
2022/03/20 00:44:07;;;;;;;0.70;0.70;;;;;;;8.10;31.09;103623.91;696037;28;22394;-66
2022/03/20 00:44:28;;;;;;;0.85;0.85;;;;;;;8.12;31.16;103630.09;695935;28;47179;-65
2022/03/20 00:44:50;;;;;;;0.82;0.82;;;;;;;8.11;31.16;103628.34;696423;28;21495;-66
2022/03/20 00:45:11;;;;;;;0.85;0.85;;;;;;;8.11;31.06;103633.75;695791;28;22394;-66
2022/03/20 00:45:33;;;;;;;0.90;0.90;;;;;;;8.09;31.16;103628.44;696155;28;21539;-65
2022/03/20 00:45:54;;;;;;;0.80;0.80;;;;;;;8.08;31.22;103628.53;694630;28;69433;-66
2022/03/20 00:46:16;;;;;;;0.90;0.90;;;;;;;8.07;31.45;103626.78;694998;28;45231;-65
2022/03/20 00:46:37;;;;;;;0.90;0.90;;;;;;;8.06;31.33;103623.25;695678;28;24002;-65
2022/03/20 00:46:59;;;;;;;0.90;0.90;;;;;;;8.09;31.54;103627.59;696007;28;22462;-65
2022/03/20 00:47:20;;;;;;;0.77;0.77;;;;;;;8.06;31.29;103627.78;695290;28;44057;-65
2022/03/20 00:47:42;;;;;;;0.73;0.73;;;;;;;8.05;31.40;103626.88;696232;28;22418;-65
2022/03/20 00:48:03;;;;;;;0.80;0.80;;;;;;;8.02;31.28;103626.19;695773;28;21534;-66
2022/03/20 00:48:25;;;;;;;1.00;1.00;;;;;;;8.04;31.28;103624.28;695417;28;47444;-66
2022/03/20 00:48:47;;;;;;;1.00;1.00;;;;;;;8.03;31.38;103622.56;694684;28;69872;-65
2022/03/20 00:49:09;;;;;;;0.82;0.82;;;;;;;8.02;31.30;103624.38;696549;28;21513;-65
2022/03/20 00:49:30;;;;;;;0.80;0.80;;;;;;;8.02;31.49;103621.69;696390;28;23429;-65
2022/03/20 00:49:52;;;;;;;0.90;0.90;;;;;;;7.98;31.79;103616.56;695684;28;46354;-65
2022/03/20 00:50:14;;;;;;;1.05;1.05;;;;;;;8.03;31.31;103625.25;695482;28;46606;-65
2022/03/20 00:50:35;;;;;;;0.88;0.88;;;;;;;8.03;31.48;103626.13;696543;28;22415;-66
2022/03/20 00:51:03;;;;;;;0.80;0.80;;;;;;;8.03;31.40;103619.88;695674;28;46262;-65
2022/03/20 00:51:25;;;;;;;0.70;0.70;;;;;;;8.04;31.45;103618.91;691993;28;138025;-65
2022/03/20 00:51:46;;;;;;;0.68;0.68;;;;;;;8.04;31.36;103619.78;695227;28;21377;-65
2022/03/20 00:52:07;;;;;;;0.90;0.90;;;;;;;8.04;31.29;103625.16;694730;28;46206;-65
2022/03/20 00:52:32;;;;;;;0.90;0.90;;;;;;;8.03;31.49;103617.19;695595;28;46324;-65
2022/03/20 00:52:53;;;;;;;0.80;0.80;;;;;;;8.05;31.06;103623.34;693006;28;113615;-65
2022/03/20 00:53:14;;;;;;;0.70;0.70;;;;;;;8.07;31.31;103618.72;696022;28;23413;-65
2022/03/20 00:53:36;;;;;;;0.60;0.60;;;;;;;8.08;31.20;103625.84;696098;28;21067;-66
2022/03/20 00:53:57;;;;;;;0.80;0.80;;;;;;;8.08;31.29;103617.78;695427;28;46363;-66
2022/03/20 00:54:18;;;;;;;1.00;1.00;;;;;;;8.06;30.85;103617.88;696380;28;21542;-66
2022/03/20 00:54:39;;;;;;;0.90;0.90;;;;;;;8.07;30.97;103619.59;696422;28;22304;-65
2022/03/20 00:55:01;;;;;;;0.80;0.80;;;;;;;8.07;30.89;103616.03;696569;28;23121;-66
2022/03/20 00:55:22;;;;;;;0.80;0.80;;;;;;;8.08;30.87;103620.47;694589;28;68809;-66
2022/03/20 00:55:45;;;;;;;0.77;0.77;;;;;;;8.08;30.88;103617.78;695851;28;23453;-65
2022/03/20 00:56:07;;;;;;;0.80;0.80;;;;;;;8.08;31.00;103618.63;695746;28;44569;-65
2022/03/20 00:56:28;;;;;;;1.00;1.00;;;;;;;8.08;31.20;103610.56;696042;28;17665;-66
2022/03/20 00:56:49;;;;;;;0.93;0.93;;;;;;;8.07;30.90;103613.34;694809;28;43509;-65
2022/03/20 00:57:11;;;;;;;0.70;0.70;;;;;;;8.06;30.75;103606.25;695932;28;22420;-66
2022/03/20 00:57:33;;;;;;;0.70;0.70;;;;;;;8.06;30.71;103619.69;695570;28;46509;-65
2022/03/20 00:57:54;;;;;;;0.77;0.77;;;;;;;8.06;31.02;103611.63;695686;28;46447;-65
2022/03/20 00:58:15;;;;;;;0.90;0.90;;;;;;;8.07;31.06;103618.72;696264;28;21808;-66
2022/03/20 00:58:37;;;;;;;0.82;0.82;;;;;;;8.07;30.94;103616.91;695217;28;46376;-65
2022/03/20 00:58:58;;;;;;;0.80;0.80;;;;;;;8.07;31.00;103616.03;696216;28;22283;-65
2022/03/20 00:59:19;;;;;;;0.70;0.70;;;;;;;8.06;30.97;103614.31;695106;28;46744;-65
2022/03/20 00:59:41;;;;;;;0.75;0.75;;;;;;;8.05;31.09;103615.25;694697;28;46357;-65
2022/03/20 01:00:03;;;;;;;0.90;0.90;;;;;;;8.04;31.17;103614.41;696184;28;21503;-65
2022/03/20 01:00:25;;;;;;;0.80;0.80;;;;;;;8.06;31.20;103611.63;695407;28;44204;-66
2022/03/20 01:00:46;;;;;;;0.75;0.75;;;;;;;8.01;31.22;103609.19;695876;28;46106;-65
2022/03/20 01:01:10;;;;;;;0.80;0.80;;;;;;;8.02;31.35;103613.59;696455;28;23453;-66
2022/03/20 01:01:32;;;;;;;0.70;0.70;;;;;;;8.02;31.45;103616.28;692297;28;90364;-66
2022/03/20 01:01:53;;;;;;;0.80;0.80;;;;;;;7.99;30.95;103612.94;694773;28;46408;-65
2022/03/20 01:02:15;;;;;;;0.80;0.80;;;;;;;8.02;31.23;103618.13;695064;28;46389;-65
2022/03/20 01:02:37;;;;;;;0.80;0.80;;;;;;;8.03;30.99;103609.09;695941;28;22414;-65
2022/03/20 01:02:59;;;;;;;0.73;0.73;;;;;;;8.01;31.53;103608.31;697581;28;976;-65
2022/03/20 01:03:21;;;;;;;0.70;0.70;;;;;;;8.02;31.08;103616.28;695234;28;46130;-65
2022/03/20 01:03:43;;;;;;;1.00;1.00;;;;;;;8.01;31.15;103614.59;695659;28;46300;-65
2022/03/20 01:04:04;;;;;;;0.90;0.90;;;;;;;8.00;31.29;103615.53;695811;28;46350;-65
2022/03/20 01:04:26;;;;;;;1.00;1.00;;;;;;;7.99;31.16;103612.94;696353;28;23512;-65
2022/03/20 01:04:48;;;;;;;0.80;0.80;;;;;;;7.99;31.12;103615.63;695354;28;45286;-65
2022/03/20 01:05:10;;;;;;;0.70;0.70;;;;;;;7.98;31.26;103606.69;695483;28;46684;-65
2022/03/20 01:05:31;;;;;;;0.80;0.80;;;;;;;7.97;31.27;103606.78;695354;28;46351;-65
2022/03/20 01:05:53;;;;;;;0.90;0.90;;;;;;;7.96;30.94;103605.88;696701;28;23614;-65
2022/03/20 01:06:17;;;;;;;0.90;0.90;;;;;;;7.95;31.06;103609.56;695308;28;44406;-64
2022/03/20 01:06:38;;;;;;;0.73;0.73;;;;;;;7.94;31.07;103614.03;692476;28;92337;-65
2022/03/20 01:07:00;;;;;;;0.70;0.70;;;;;;;7.94;31.26;103611.34;696215;28;22342;-65
2022/03/20 01:07:22;;;;;;;0.77;0.77;;;;;;;7.92;31.36;103607.91;695508;28;44398;-65
2022/03/20 01:07:43;;;;;;;0.90;0.90;;;;;;;7.92;31.06;103607.91;695541;28;45247;-65
2022/03/20 01:08:04;;;;;;;0.90;0.90;;;;;;;7.90;31.00;103606.28;696165;28;21290;-65
2022/03/20 01:08:25;;;;;;;0.90;0.90;;;;;;;7.94;31.35;103605.13;696228;28;23436;-65
2022/03/20 01:08:47;;;;;;;0.80;0.80;;;;;;;7.92;31.05;103605.19;696312;28;24350;-65
2022/03/20 01:09:08;;;;;;;0.80;0.80;;;;;;;7.94;31.10;103615.88;695040;28;46499;-65
2022/03/20 01:09:29;;;;;;;0.80;0.80;;;;;;;7.96;31.26;103605.03;695367;28;22311;-65
2022/03/20 01:09:50;;;;;;;0.90;0.90;;;;;;;7.96;31.20;103608.56;695659;28;22404;-65
2022/03/20 01:10:15;;;;;;;0.80;0.80;;;;;;;7.97;30.94;103610.31;696002;28;14183;-64
2022/03/20 01:10:37;;;;;;;0.80;0.80;;;;;;;7.98;31.08;103609.38;695351;28;46614;-65
2022/03/20 01:10:59;;;;;;;0.70;0.70;;;;;;;7.97;31.01;103612.16;696469;28;21537;-65
2022/03/20 01:11:20;;;;;;;0.85;0.85;;;;;;;7.95;31.04;103606.88;694049;28;69316;-65
2022/03/20 01:11:42;;;;;;;1.00;1.00;;;;;;;7.94;31.05;103607.81;694831;28;23444;-65
2022/03/20 01:12:06;;;;;;;0.90;0.90;;;;;;;7.93;31.26;103609.66;696376;28;21611;-65
2022/03/20 01:12:27;;;;;;;0.80;0.80;;;;;;;7.94;31.11;103614.03;693709;28;91073;-64
2022/03/20 01:12:48;;;;;;;0.60;0.60;;;;;;;7.96;30.92;103610.41;695844;28;46410;-64
2022/03/20 01:13:09;;;;;;;0.77;0.77;;;;;;;7.94;31.01;103611.34;696441;28;21386;-64
2022/03/20 01:13:31;;;;;;;0.90;0.90;;;;;;;7.94;30.80;103616.75;696436;28;22318;-65
2022/03/20 01:13:56;;;;;;;0.80;0.80;;;;;;;7.94;31.07;103605.97;695867;28;44435;-65
2022/03/20 01:14:17;;;;;;;0.80;0.80;;;;;;;7.95;31.20;103609.56;693036;28;92124;-65
2022/03/20 01:14:38;;;;;;;0.60;0.60;;;;;;;7.95;31.03;103609.56;696772;28;21296;-65
2022/03/20 01:15:00;;;;;;;0.70;0.70;;;;;;;7.94;30.98;103613.19;696085;28;22397;-65
2022/03/20 01:15:21;;;;;;;0.90;0.90;;;;;;;7.92;30.98;103604.34;695261;28;46656;-65
2022/03/20 01:15:42;;;;;;;0.90;0.90;;;;;;;7.94;30.96;103611.34;695781;28;46227;-65
2022/03/20 01:16:06;;;;;;;0.80;0.80;;;;;;;7.93;31.36;103609.66;696270;28;21315;-65
2022/03/20 01:16:27;;;;;;;0.75;0.75;;;;;;;7.93;31.03;103600.69;694200;28;67539;-65
2022/03/20 01:16:48;;;;;;;0.70;0.70;;;;;;;7.93;31.17;103604.25;695984;28;18087;-65
2022/03/20 01:17:09;;;;;;;0.80;0.80;;;;;;;7.93;31.05;103601.56;695702;28;45260;-65
2022/03/20 01:17:31;;;;;;;0.90;0.90;;;;;;;7.92;31.48;103613.28;696059;28;23490;-65
2022/03/20 01:17:53;;;;;;;0.90;0.90;;;;;;;7.93;31.27;103606.94;695783;28;45282;-64
2022/03/20 01:18:14;;;;;;;0.70;0.70;;;;;;;7.92;31.35;103605.19;696168;28;23500;-65
2022/03/20 01:18:35;;;;;;;0.70;0.70;;;;;;;7.93;31.19;103611.44;695977;28;21364;-65
2022/03/20 01:18:57;;;;;;;0.75;0.75;;;;;;;7.92;31.25;103605.19;695966;28;21304;-65
2022/03/20 01:19:18;;;;;;;0.82;0.82;;;;;;;7.92;31.32;103609.72;695181;28;46354;-65
2022/03/20 01:19:39;;;;;;;0.80;0.80;;;;;;;7.93;31.09;103606.94;694929;28;46315;-64
2022/03/20 01:20:00;;;;;;;0.80;0.80;;;;;;;7.94;31.09;103608.66;696408;28;22414;-65
2022/03/20 01:20:23;;;;;;;0.70;0.70;;;;;;;7.94;31.01;103608.66;696161;28;23534;-65
2022/03/20 01:20:44;;;;;;;0.60;0.60;;;;;;;7.92;30.98;103605.19;695518;28;44421;-65
2022/03/20 01:21:06;;;;;;;0.77;0.77;;;;;;;7.90;31.22;103607.13;696065;28;22366;-65
2022/03/20 01:21:27;;;;;;;0.90;0.90;;;;;;;7.91;31.21;103608.84;695025;28;46390;-65
2022/03/20 01:21:49;;;;;;;0.90;0.90;;;;;;;7.91;31.15;103603.47;695363;28;23405;-65
2022/03/20 01:22:11;;;;;;;0.70;0.70;;;;;;;7.83;31.02;103586.91;695415;28;46290;-65
2022/03/20 01:22:32;;;;;;;0.60;0.60;;;;;;;7.90;30.99;103604.44;695729;28;46451;-65
2022/03/20 01:22:53;;;;;;;0.60;0.60;;;;;;;7.87;31.20;103601.06;695297;28;46335;-65
2022/03/20 01:23:16;;;;;;;0.85;0.85;;;;;;;7.89;31.47;103599.16;695792;28;23431;-64
2022/03/20 01:23:38;;;;;;;0.80;0.80;;;;;;;7.90;31.50;103595.50;695051;28;69120;-65
2022/03/20 01:24:00;;;;;;;0.70;0.70;;;;;;;7.88;31.16;103600.09;695347;28;46414;-65
2022/03/20 01:24:24;;;;;;;0.60;0.60;;;;;;;7.90;31.41;103606.28;695848;28;21702;-65
2022/03/20 01:24:47;;;;;;;0.65;0.65;;;;;;;7.89;31.21;103600.00;693746;28;93198;-64
2022/03/20 01:25:08;;;;;;;1.00;1.00;;;;;;;7.89;30.90;103604.53;694275;28;70210;-65
2022/03/20 01:25:30;;;;;;;1.00;1.00;;;;;;;7.90;30.97;103600.88;696236;28;23469;-64
2022/03/20 01:25:52;;;;;;;0.80;0.80;;;;;;;7.90;31.31;103599.06;695469;28;44226;-65
2022/03/20 01:26:15;;;;;;;0.60;0.60;;;;;;;7.91;31.37;103600.78;695243;28;45209;-65
2022/03/20 01:26:36;;;;;;;0.68;0.68;;;;;;;7.90;31.37;103596.38;693738;28;69465;-65
2022/03/20 01:26:57;;;;;;;0.80;0.80;;;;;;;7.90;31.25;103601.75;696954;28;844;-65
2022/03/20 01:27:19;;;;;;;0.90;0.90;;;;;;;7.89;31.47;103600.00;695728;28;23660;-65
2022/03/20 01:27:40;;;;;;;0.80;0.80;;;;;;;7.89;31.15;103599.16;695444;28;44435;-65
2022/03/20 01:28:02;;;;;;;0.70;0.70;;;;;;;7.89;31.36;103600.00;696507;28;23452;-65
2022/03/20 01:28:23;;;;;;;0.70;0.70;;;;;;;7.88;31.21;103602.78;696927;28;1784;-65
2022/03/20 01:28:45;;;;;;;0.90;0.90;;;;;;;7.88;30.96;103600.09;696431;28;23431;-65
2022/03/20 01:29:06;;;;;;;0.80;0.80;;;;;;;7.89;31.12;103602.69;695566;28;46291;-64
2022/03/20 01:29:27;;;;;;;0.80;0.80;;;;;;;7.89;31.19;103602.69;696576;28;1793;-65
2022/03/20 01:29:48;;;;;;;0.82;0.82;;;;;;;7.89;31.02;103602.69;696200;28;23966;-65
2022/03/20 01:30:11;;;;;;;0.70;0.70;;;;;;;7.89;31.28;103599.16;696486;28;21622;-65
2022/03/20 01:30:33;;;;;;;0.75;0.75;;;;;;;7.87;30.97;103601.91;696621;28;1816;-64
2022/03/20 01:30:55;;;;;;;0.90;0.90;;;;;;;7.85;30.90;103598.47;695646;28;42996;-65
2022/03/20 01:31:16;;;;;;;0.80;0.80;;;;;;;7.84;31.20;103591.34;694339;28;69471;-64
2022/03/20 01:31:39;;;;;;;0.80;0.80;;;;;;;7.85;31.41;103602.97;695400;28;22396;-64
2022/03/20 01:32:00;;;;;;;0.80;0.80;;;;;;;7.83;31.16;103596.81;694884;28;68430;-65
2022/03/20 01:32:21;;;;;;;0.90;0.90;;;;;;;7.84;31.41;103598.56;695785;28;22531;-64
2022/03/20 01:32:43;;;;;;;0.90;0.90;;;;;;;7.80;31.49;103592.47;696098;28;21550;-65
2022/03/20 01:33:05;;;;;;;0.80;0.80;;;;;;;7.84;31.16;103599.41;695748;28;45318;-65
2022/03/20 01:33:26;;;;;;;0.77;0.77;;;;;;;7.84;31.22;103590.47;695521;28;45049;-64
2022/03/20 01:33:47;;;;;;;0.60;0.60;;;;;;;7.83;31.21;103591.44;696647;28;22211;-65
2022/03/20 01:34:08;;;;;;;0.70;0.70;;;;;;;7.83;31.38;103603.03;696100;28;23489;-65
2022/03/20 01:34:29;;;;;;;0.90;0.90;;;;;;;7.84;31.29;103593.16;696073;28;22533;-65
2022/03/20 01:34:51;;;;;;;0.90;0.90;;;;;;;7.84;31.52;103604.78;696428;28;21586;-65
2022/03/20 01:35:12;;;;;;;0.90;0.90;;;;;;;7.83;31.42;103592.28;694956;28;44406;-65
2022/03/20 01:35:34;;;;;;;0.80;0.80;;;;;;;7.84;31.60;103595.88;698756;28;25291;-65
2022/03/20 01:35:55;;;;;;;0.70;0.70;;;;;;;7.85;31.54;103592.19;698568;28;46326;-65
2022/03/20 01:36:17;;;;;;;0.80;0.80;;;;;;;7.83;31.35;103596.81;701183;28;23433;-65
2022/03/20 01:36:38;;;;;;;0.90;0.90;;;;;;;7.84;31.12;103599.41;699428;28;46391;-65
2022/03/20 01:37:00;;;;;;;0.80;0.80;;;;;;;7.84;31.33;103593.16;701414;28;22384;-65
2022/03/20 01:37:21;;;;;;;0.80;0.80;;;;;;;7.83;31.34;103600.34;699871;28;22207;-65
2022/03/20 01:37:43;;;;;;;0.73;0.73;;;;;;;7.83;31.31;103594.97;695718;28;34978;-65
2022/03/20 01:38:05;;;;;;;0.77;0.77;;;;;;;7.83;31.73;103589.59;695061;28;44508;-65
2022/03/20 01:38:26;;;;;;;0.98;0.98;;;;;;;7.82;31.64;103595.06;696470;28;23418;-65
2022/03/20 01:38:47;;;;;;;1.00;1.00;;;;;;;7.83;31.35;103594.13;695203;28;44360;-65
2022/03/20 01:39:09;;;;;;;0.80;0.80;;;;;;;7.82;31.25;103597.75;696057;28;23396;-65
2022/03/20 01:39:31;;;;;;;0.70;0.70;;;;;;;7.79;31.26;103590.75;695125;28;46413;-65
2022/03/20 01:39:52;;;;;;;0.70;0.70;;;;;;;7.80;31.55;103589.78;696498;28;22385;-64
2022/03/20 01:40:13;;;;;;;0.77;0.77;;;;;;;7.80;31.53;103591.59;695116;28;46333;-64
2022/03/20 01:40:35;;;;;;;0.90;0.90;;;;;;;7.77;31.60;103587.25;693125;28;22379;-64
2022/03/20 01:40:56;;;;;;;0.90;0.90;;;;;;;7.75;31.63;103595.41;693253;28;45242;-65
2022/03/20 01:41:19;;;;;;;0.85;0.85;;;;;;;7.74;31.69;103593.69;694026;28;22400;-65
2022/03/20 01:41:40;;;;;;;0.80;0.80;;;;;;;7.75;31.60;103591.88;689632;28;69382;-64
2022/03/20 01:42:02;;;;;;;0.70;0.70;;;;;;;7.76;31.64;103593.63;690826;28;24418;-64
2022/03/20 01:42:24;;;;;;;0.80;0.80;;;;;;;7.74;31.70;103590.13;694563;28;23034;-65
2022/03/20 01:42:46;;;;;;;0.90;0.90;;;;;;;7.76;31.94;103594.47;695630;28;46333;-65
2022/03/20 01:43:07;;;;;;;0.90;0.90;;;;;;;7.76;32.02;103596.31;695247;28;44388;-65
2022/03/20 01:43:28;;;;;;;0.80;0.80;;;;;;;7.75;31.96;103591.88;696514;28;22637;-65